createdAt,value
2019-06-26T00:00:32.156Z,20.27
2019-06-26T00:03:03.084Z,18.23
2019-06-26T00:05:34.288Z,17.67
2019-06-26T00:08:05.364Z,19.13
2019-06-26T00:10:36.408Z,19.67
2019-06-26T00:13:07.459Z,20.03
2019-06-26T00:15:38.557Z,19.67
2019-06-26T00:18:09.623Z,20.63
2019-06-26T00:20:40.539Z,21.13
2019-06-26T00:23:11.931Z,19.97
2019-06-26T00:25:42.987Z,19.00
2019-06-26T00:28:15.490Z,20.60
2019-06-26T00:30:46.592Z,20.37
2019-06-26T00:33:17.864Z,19.63
2019-06-26T00:35:49.085Z,19.77
2019-06-26T00:38:20.044Z,19.60
2019-06-26T00:40:51.456Z,18.83
2019-06-26T00:43:22.697Z,18.63
2019-06-26T00:45:53.969Z,18.90
2019-06-26T00:48:25.027Z,18.00
2019-06-26T00:50:57.208Z,17.50
2019-06-26T00:53:28.704Z,18.70
2019-06-26T00:55:59.919Z,18.07
2019-06-26T00:58:31.504Z,18.63
2019-06-26T01:01:02.752Z,18.57
2019-06-26T01:03:34.036Z,17.70
2019-06-26T01:06:05.216Z,16.47
2019-06-26T01:08:35.929Z,18.30
2019-06-26T01:11:07.263Z,17.20
2019-06-26T01:13:38.291Z,16.50
2019-06-26T01:16:09.848Z,16.97
2019-06-26T01:18:41.096Z,16.20
2019-06-26T01:21:12.083Z,15.50
2019-06-26T01:23:43.118Z,15.97
2019-06-26T01:26:14.124Z,16.47
2019-06-26T01:28:45.172Z,14.67
2019-06-26T01:31:16.307Z,15.33
2019-06-26T01:33:47.346Z,15.30
2019-06-26T01:36:18.280Z,14.93
2019-06-26T01:38:49.491Z,14.40
2019-06-26T01:41:20.915Z,16.17
2019-06-26T01:43:52.128Z,15.40
2019-06-26T01:46:23.593Z,17.53
2019-06-26T01:48:54.611Z,15.63
2019-06-26T01:51:25.941Z,16.13
2019-06-26T01:53:56.875Z,15.87
2019-06-26T01:56:29.152Z,16.50
2019-06-26T01:59:00.102Z,17.43
2019-06-26T02:01:31.679Z,17.23
2019-06-26T02:04:02.927Z,17.13
2019-06-26T02:06:34.595Z,16.47
2019-06-26T02:09:06.519Z,19.33
2019-06-26T02:11:37.455Z,18.33
2019-06-26T02:14:08.695Z,18.20
2019-06-26T02:16:39.859Z,18.63
2019-06-26T02:19:12.740Z,18.23
2019-06-26T02:21:43.987Z,18.07
2019-06-26T02:24:15.021Z,18.80
2019-06-26T02:26:46.503Z,19.13
2019-06-26T02:29:17.703Z,19.90
2019-06-26T02:31:48.688Z,20.03
2019-06-26T02:34:20.007Z,19.20
2019-06-26T02:36:50.957Z,18.70
2019-06-26T02:39:22.371Z,19.23
2019-06-26T02:41:53.255Z,18.67
2019-06-26T02:44:24.515Z,18.70
2019-06-26T02:47:13.613Z,18.27
2019-06-26T02:49:28.966Z,18.73
2019-06-26T02:51:59.913Z,20.43
2019-06-26T02:54:30.969Z,19.93
2019-06-26T02:57:01.959Z,20.03
2019-06-26T02:59:33.107Z,19.37
2019-06-26T03:02:04.408Z,18.87
2019-06-26T03:04:35.643Z,19.00
2019-06-26T03:07:06.507Z,18.60
2019-06-26T03:09:37.459Z,17.73
2019-06-26T03:12:08.685Z,18.70
2019-06-26T03:14:39.839Z,19.03
2019-06-26T03:17:10.810Z,19.07
2019-06-26T03:19:42.031Z,18.50
2019-06-26T03:22:13.176Z,18.97
2019-06-26T03:24:44.143Z,18.80
2019-06-26T03:27:15.069Z,19.03
2019-06-26T03:29:46.438Z,17.33
2019-06-26T03:32:17.732Z,18.10
2019-06-26T03:34:48.756Z,18.30
2019-06-26T03:37:19.615Z,17.30
2019-06-26T03:39:50.921Z,17.40
2019-06-26T03:42:21.967Z,16.93
2019-06-26T03:44:53.512Z,17.17
2019-06-26T03:47:24.831Z,16.63
2019-06-26T03:49:55.899Z,16.70
2019-06-26T03:52:26.891Z,15.57
2019-06-26T03:54:58.463Z,17.07
2019-06-26T03:57:29.444Z,17.10
2019-06-26T04:00:00.607Z,17.07
2019-06-26T04:02:31.768Z,18.07
2019-06-26T04:05:03.485Z,17.43
2019-06-26T04:07:34.689Z,17.03
2019-06-26T04:10:06.675Z,17.00
2019-06-26T04:12:38.003Z,16.77
2019-06-26T04:15:09.748Z,15.77
2019-06-26T04:17:41.147Z,15.17
2019-06-26T04:20:12.580Z,15.90
2019-06-26T04:22:46.596Z,15.63
2019-06-26T04:25:17.081Z,15.30
2019-06-26T04:27:48.047Z,15.53
2019-06-26T04:30:19.425Z,16.43
2019-06-26T04:32:50.831Z,16.37
2019-06-26T04:35:21.831Z,16.20
2019-06-26T04:37:53.228Z,16.30
2019-06-26T04:40:24.462Z,15.20
2019-06-26T04:42:55.680Z,15.77
2019-06-26T04:45:26.744Z,16.20
2019-06-26T04:47:58.267Z,15.60
2019-06-26T04:50:29.257Z,15.07
2019-06-26T04:53:00.875Z,15.63
2019-06-26T04:55:31.867Z,14.93
2019-06-26T04:58:03.054Z,14.90
2019-06-26T05:00:34.262Z,15.20
2019-06-26T05:03:05.559Z,14.90
2019-06-26T05:05:39.990Z,15.10
2019-06-26T05:08:09.367Z,14.23
2019-06-26T05:10:40.775Z,14.30
2019-06-26T05:13:11.867Z,13.80
2019-06-26T05:15:43.159Z,13.97
2019-06-26T05:18:14.151Z,13.47
2019-06-26T05:20:45.546Z,13.57
2019-06-26T05:23:16.530Z,13.40
2019-06-26T05:25:48.187Z,13.43
2019-06-26T05:28:19.388Z,12.97
2019-06-26T05:30:50.737Z,12.73
2019-06-26T05:33:21.933Z,12.93
2019-06-26T05:35:53.067Z,12.47
2019-06-26T05:38:24.155Z,12.73
2019-06-26T05:40:55.427Z,12.77
2019-06-26T05:43:26.727Z,12.50
2019-06-26T05:45:58.275Z,12.93
2019-06-26T05:48:30.943Z,12.57
2019-06-26T05:51:02.237Z,11.83
2019-06-26T05:53:33.343Z,13.47
2019-06-26T05:56:04.620Z,12.37
2019-06-26T05:58:35.752Z,12.97
2019-06-26T06:01:06.961Z,12.87
2019-06-26T06:03:38.023Z,12.63
2019-06-26T06:06:09.391Z,11.97
2019-06-26T06:08:40.831Z,12.63
2019-06-26T06:11:11.712Z,11.50
2019-06-26T06:13:42.947Z,12.25
2019-06-26T06:16:14.023Z,11.20
2019-06-26T06:18:45.191Z,11.87
2019-06-26T06:21:16.755Z,11.97
2019-06-26T06:23:47.995Z,12.07
2019-06-26T06:26:19.644Z,11.20
2019-06-26T06:28:50.763Z,11.13
2019-06-26T06:31:21.768Z,11.30
2019-06-26T06:33:53.087Z,10.98
2019-06-26T06:36:24.523Z,12.03
2019-06-26T06:38:55.763Z,11.05
2019-06-26T06:41:26.867Z,10.65
2019-06-26T06:43:58.583Z,11.10
2019-06-26T06:46:29.619Z,10.05
2019-06-26T06:49:00.723Z,10.65
2019-06-26T06:51:32.008Z,10.38
2019-06-26T06:54:03.255Z,10.08
2019-06-26T06:56:34.671Z,9.65
2019-06-26T06:59:06.054Z,9.88
2019-06-26T07:01:37.115Z,9.85
2019-06-26T07:04:08.263Z,9.38
2019-06-26T07:06:39.415Z,9.50
2019-06-26T07:09:10.421Z,9.43
2019-06-26T07:11:41.303Z,9.65
2019-06-26T07:14:12.588Z,9.33
2019-06-26T07:16:43.783Z,9.33
2019-06-26T07:19:14.860Z,9.20
2019-06-26T07:21:46.987Z,8.50
2019-06-26T07:24:18.072Z,8.63
2019-06-26T07:26:49.763Z,7.67
2019-06-26T07:29:20.915Z,8.63
2019-06-26T07:31:52.012Z,8.85
2019-06-26T07:34:22.913Z,9.10
2019-06-26T07:36:54.115Z,8.83
2019-06-26T07:39:25.277Z,8.93
2019-06-26T07:41:56.251Z,8.73
2019-06-26T07:44:27.473Z,7.85
2019-06-26T07:46:58.620Z,8.48
2019-06-26T07:49:29.739Z,7.95
2019-06-26T07:52:00.884Z,8.13
2019-06-26T07:54:32.146Z,8.15
2019-06-26T07:57:03.164Z,7.53
2019-06-26T07:59:34.071Z,7.62
2019-06-26T08:02:05.332Z,7.60
2019-06-26T08:04:36.592Z,7.90
2019-06-26T08:07:08.003Z,7.85
2019-06-26T08:09:39.003Z,8.00
2019-06-26T08:12:10.983Z,7.00
2019-06-26T08:14:43.231Z,7.08
2019-06-26T08:17:14.521Z,8.03
2019-06-26T08:19:45.680Z,8.20
2019-06-26T08:22:18.115Z,7.65
2019-06-26T08:24:49.469Z,7.30
2019-06-26T08:27:20.643Z,7.45
2019-06-26T08:29:52.255Z,6.85
2019-06-26T08:32:25.948Z,7.33
2019-06-26T08:34:56.509Z,7.33
2019-06-26T08:37:27.969Z,7.78
2019-06-26T08:39:58.904Z,6.55
2019-06-26T08:42:30.111Z,6.70
2019-06-26T08:45:01.509Z,6.97
2019-06-26T08:47:33.268Z,6.65
2019-06-26T08:50:05.006Z,7.00
2019-06-26T08:52:36.203Z,6.10
2019-06-26T08:55:07.809Z,6.53
2019-06-26T08:57:39.016Z,6.37
2019-06-26T09:00:10.892Z,6.62
2019-06-26T09:02:42.704Z,6.92
2019-06-26T09:05:15.160Z,6.92
2019-06-26T09:07:46.731Z,6.67
2019-06-26T09:10:19.032Z,6.35
2019-06-26T09:12:50.212Z,6.08
2019-06-26T09:15:21.237Z,6.42
2019-06-26T09:17:52.232Z,6.17
2019-06-26T09:20:32.885Z,6.28
2019-06-26T09:23:03.687Z,6.25
2019-06-26T09:25:34.940Z,5.85
2019-06-26T09:28:06.800Z,6.33
2019-06-26T09:30:39.320Z,5.72
2019-06-26T09:33:10.496Z,6.00
2019-06-26T09:35:41.483Z,5.72
2019-06-26T09:38:13.071Z,5.97
2019-06-26T09:40:44.605Z,5.53
2019-06-26T09:43:15.660Z,6.35
2019-06-26T09:45:47.448Z,5.90
2019-06-26T09:48:18.646Z,6.03
2019-06-26T09:50:50.374Z,6.20
2019-06-26T09:53:22.800Z,6.10
2019-06-26T09:55:53.909Z,6.28
2019-06-26T09:58:25.117Z,6.30
2019-06-26T10:00:56.323Z,7.03
2019-06-26T10:03:27.517Z,6.45
2019-06-26T10:05:58.995Z,6.10
2019-06-26T10:08:29.949Z,6.60
2019-06-26T10:11:01.123Z,6.83
2019-06-26T10:13:32.236Z,6.78
2019-06-26T10:16:04.921Z,6.80
2019-06-26T10:18:35.976Z,7.42
2019-06-26T10:21:07.040Z,6.70
2019-06-26T10:23:39.656Z,6.75
2019-06-26T10:26:10.919Z,6.87
2019-06-26T10:28:41.976Z,6.45
2019-06-26T10:31:13.165Z,6.67
2019-06-26T10:33:43.983Z,6.92
2019-06-26T10:36:15.115Z,6.58
2019-06-26T10:38:46.416Z,6.90
2019-06-26T10:41:17.506Z,7.17
2019-06-26T10:43:48.575Z,7.12
2019-06-26T10:46:20.424Z,7.10
2019-06-26T10:48:51.941Z,6.87
2019-06-26T10:51:23.372Z,6.47
2019-06-26T10:53:55.832Z,6.60
2019-06-26T10:56:28.849Z,6.42
2019-06-26T10:59:00.115Z,6.30
2019-06-26T11:01:31.594Z,6.70
2019-06-26T11:04:03.123Z,7.05
2019-06-26T11:06:37.045Z,7.30
2019-06-26T11:09:08.772Z,6.95
2019-06-26T11:11:39.769Z,6.65
2019-06-26T11:14:11.308Z,6.75
2019-06-26T11:16:42.484Z,6.60
2019-06-26T11:19:14.536Z,6.87
2019-06-26T11:21:45.693Z,6.92
2019-06-26T11:24:20.222Z,6.75
2019-06-26T11:26:51.843Z,6.80
2019-06-26T11:29:25.924Z,6.60
2019-06-26T11:31:57.108Z,7.08
2019-06-26T11:34:29.271Z,6.50
2019-06-26T11:37:04.285Z,6.65
2019-06-26T11:39:34.421Z,6.67
2019-06-26T11:42:06.527Z,6.92
2019-06-26T11:44:37.800Z,6.60
2019-06-26T11:47:09.751Z,6.12
2019-06-26T11:49:41.361Z,7.10
2019-06-26T11:52:12.667Z,6.85
2019-06-26T11:54:58.301Z,6.35
2019-06-26T11:57:18.146Z,7.00
2019-06-26T11:59:49.373Z,7.08
2019-06-26T12:02:20.816Z,6.67
2019-06-26T12:04:52.384Z,6.75
2019-06-26T12:07:24.451Z,7.00
2019-06-26T12:09:55.919Z,6.65
2019-06-26T12:12:27.315Z,6.33
2019-06-26T12:14:58.739Z,7.20
2019-06-26T12:17:29.912Z,7.00
2019-06-26T12:20:17.042Z,6.20
2019-06-26T12:22:33.884Z,6.62
2019-06-26T12:25:06.609Z,6.20
2019-06-26T12:27:37.973Z,6.28
2019-06-26T12:30:11.023Z,6.42
2019-06-26T12:32:47.398Z,6.35
2019-06-26T12:35:14.944Z,5.95
2019-06-26T12:37:46.036Z,5.95
2019-06-26T12:40:20.068Z,6.10
2019-06-26T12:42:55.657Z,6.08
2019-06-26T12:45:26.172Z,6.28
2019-06-26T12:47:58.780Z,6.40
2019-06-26T12:50:35.553Z,5.95
2019-06-26T12:53:02.401Z,6.30
2019-06-26T12:55:34.588Z,5.55
2019-06-26T12:58:13.246Z,6.70
2019-06-26T13:00:39.391Z,6.12
2019-06-26T13:03:11.653Z,6.30
2019-06-26T13:05:43.387Z,6.03
2019-06-26T13:08:14.804Z,6.10
2019-06-26T13:10:50.089Z,6.35
2019-06-26T13:13:19.218Z,6.45
2019-06-26T13:15:51.223Z,6.33
2019-06-26T13:18:22.702Z,5.92
2019-06-26T13:20:53.877Z,6.03
2019-06-26T13:23:25.691Z,6.83
2019-06-26T13:25:56.757Z,6.45
2019-06-26T13:28:27.765Z,6.20
2019-06-26T13:30:58.749Z,5.75
2019-06-26T13:33:29.943Z,5.55
2019-06-26T13:36:01.813Z,5.78
2019-06-26T13:38:32.791Z,5.22
2019-06-26T13:41:03.930Z,5.05
2019-06-26T13:43:35.372Z,5.45
2019-06-26T13:46:07.024Z,5.87
2019-06-26T13:48:38.101Z,6.25
2019-06-26T13:51:10.163Z,6.20
2019-06-26T13:53:41.731Z,6.35
2019-06-26T13:56:13.033Z,6.50
2019-06-26T13:58:44.054Z,6.08
2019-06-26T14:01:15.236Z,7.00
2019-06-26T14:03:46.540Z,6.65
2019-06-26T14:06:17.940Z,7.53
2019-06-26T14:08:49.041Z,7.03
2019-06-26T14:11:21.531Z,7.10
2019-06-26T14:13:52.603Z,7.50
2019-06-26T14:16:25.432Z,7.87
2019-06-26T14:18:57.020Z,8.08
2019-06-26T14:21:28.247Z,7.37
2019-06-26T14:23:59.899Z,8.03
2019-06-26T14:26:31.227Z,7.65
2019-06-26T14:29:02.344Z,7.40
2019-06-26T14:31:33.480Z,7.55
2019-06-26T14:34:04.425Z,8.00
2019-06-26T14:36:35.985Z,7.47
2019-06-26T14:39:08.727Z,7.90
2019-06-26T14:41:40.911Z,8.10
2019-06-26T14:44:12.732Z,8.30
2019-06-26T14:46:44.039Z,8.50
2019-06-26T14:49:15.191Z,8.25
2019-06-26T14:51:47.815Z,8.63
2019-06-26T14:54:19.147Z,7.62
2019-06-26T14:56:50.587Z,8.38
2019-06-26T14:59:22.698Z,8.55
2019-06-26T15:01:53.987Z,8.07
2019-06-26T15:04:25.379Z,7.62
2019-06-26T15:06:56.407Z,7.17
2019-06-26T15:09:27.567Z,8.17
2019-06-26T15:11:59.092Z,7.90
2019-06-26T15:14:30.295Z,7.33
2019-06-26T15:17:01.445Z,8.33
2019-06-26T15:19:32.962Z,8.45
2019-06-26T15:22:04.223Z,8.10
2019-06-26T15:24:35.536Z,7.97
2019-06-26T15:27:07.540Z,7.97
2019-06-26T15:29:38.535Z,8.27
2019-06-26T15:32:09.854Z,8.00
2019-06-26T15:34:40.967Z,8.20
2019-06-26T15:37:14.464Z,7.90
2019-06-26T15:39:47.143Z,8.60
2019-06-26T15:42:19.242Z,7.97
2019-06-26T15:44:50.631Z,8.37
2019-06-26T15:47:21.728Z,8.33
2019-06-26T15:49:52.917Z,8.60
2019-06-26T15:52:24.264Z,9.03
2019-06-26T15:54:55.852Z,8.63
2019-06-26T15:57:27.615Z,8.83
2019-06-26T15:59:59.662Z,8.23
2019-06-26T16:02:30.971Z,9.30
2019-06-26T16:05:02.103Z,8.47
2019-06-26T16:07:35.227Z,9.23
2019-06-26T16:10:07.824Z,9.03
2019-06-26T16:12:39.537Z,9.00
2019-06-26T16:15:10.663Z,9.20
2019-06-26T16:17:58.302Z,9.27
2019-06-26T16:20:30.747Z,9.37
2019-06-26T16:23:03.024Z,9.90
2019-06-26T16:25:34.559Z,9.27
2019-06-26T16:28:06.579Z,9.73
2019-06-26T16:30:38.236Z,9.90
2019-06-26T16:33:09.369Z,9.63
2019-06-26T16:35:41.025Z,8.93
2019-06-26T16:38:11.960Z,9.67
2019-06-26T16:40:44.128Z,9.60
2019-06-26T16:43:15.179Z,9.57
2019-06-26T16:45:48.974Z,9.87
2019-06-26T16:48:20.056Z,9.43
2019-06-26T16:50:52.055Z,8.97
2019-06-26T16:53:23.508Z,9.27
2019-06-26T16:55:55.277Z,9.93
2019-06-26T16:58:27.091Z,8.70
2019-06-26T17:00:59.199Z,10.03
2019-06-26T17:03:30.847Z,9.57
2019-06-26T17:06:01.879Z,9.80
2019-06-26T17:08:34.677Z,9.57
2019-06-26T17:11:06.576Z,8.97
2019-06-26T17:13:37.708Z,8.87
2019-06-26T17:16:10.269Z,8.87
2019-06-26T17:18:42.183Z,8.70
2019-06-26T17:21:15.484Z,8.80
2019-06-26T17:23:46.963Z,9.20
2019-06-26T17:26:19.055Z,8.73
2019-06-26T17:28:53.487Z,8.83
2019-06-26T17:31:24.576Z,8.87
2019-06-26T17:33:55.992Z,8.80
2019-06-26T17:36:28.926Z,8.87
2019-06-26T17:39:00.286Z,8.83
2019-06-26T17:41:32.131Z,8.73
2019-06-26T17:44:03.582Z,8.70
2019-06-26T17:46:35.075Z,8.83
2019-06-26T17:49:06.523Z,8.87
2019-06-26T17:51:37.365Z,8.50
2019-06-26T17:54:08.644Z,8.77
2019-06-26T17:56:39.967Z,9.40
2019-06-26T17:59:11.351Z,8.70
2019-06-26T18:01:42.415Z,9.00
2019-06-26T18:04:13.622Z,9.10
2019-06-26T18:06:44.726Z,8.87
2019-06-26T18:09:15.970Z,8.77
2019-06-26T18:11:48.031Z,9.17
2019-06-26T18:14:20.445Z,9.50
2019-06-26T18:16:51.491Z,9.67
2019-06-26T18:19:23.565Z,8.47
2019-06-26T18:21:54.691Z,8.80
2019-06-26T18:24:26.135Z,8.70
2019-06-26T18:26:57.759Z,9.53
2019-06-26T18:29:28.861Z,9.13
2019-06-26T18:32:01.168Z,8.67
2019-06-26T18:34:32.399Z,8.80
2019-06-26T18:37:03.487Z,9.03
2019-06-26T18:39:35.535Z,8.87
2019-06-26T18:42:07.087Z,9.37
2019-06-26T18:44:38.625Z,9.30
2019-06-26T18:47:09.808Z,9.10
2019-06-26T18:49:46.681Z,8.93
2019-06-26T18:52:17.991Z,9.13
2019-06-26T18:54:49.780Z,9.33
2019-06-26T18:57:22.059Z,9.20
2019-06-26T18:59:53.251Z,9.67
2019-06-26T19:02:24.452Z,9.50
2019-06-26T19:04:55.644Z,9.27
2019-06-26T19:07:26.964Z,9.30
2019-06-26T19:09:58.484Z,9.47
2019-06-26T19:12:29.864Z,9.37
2019-06-26T19:15:01.001Z,10.13
2019-06-26T19:17:34.156Z,9.50
2019-06-26T19:20:07.352Z,10.13
2019-06-26T19:22:38.623Z,9.50
2019-06-26T19:25:09.859Z,10.07
2019-06-26T19:27:41.107Z,9.87
2019-06-26T19:30:13.912Z,10.17
2019-06-26T19:32:45.196Z,10.63
2019-06-26T19:35:19.142Z,11.20
2019-06-26T19:37:50.999Z,10.70
2019-06-26T19:40:24.131Z,11.27
2019-06-26T19:42:55.241Z,10.90
2019-06-26T19:45:26.911Z,10.67
2019-06-26T19:47:58.700Z,10.37
2019-06-26T19:50:30.419Z,10.90
2019-06-26T19:53:02.044Z,10.73
2019-06-26T19:55:33.528Z,11.03
2019-06-26T19:58:05.275Z,10.63
2019-06-26T20:00:36.423Z,10.93
2019-06-26T20:03:07.554Z,11.20
2019-06-26T20:05:39.405Z,11.63
2019-06-26T20:08:11.082Z,10.77
2019-06-26T20:10:42.528Z,11.87
2019-06-26T20:13:14.070Z,12.37
2019-06-26T20:15:45.739Z,11.27
2019-06-26T20:18:17.209Z,11.80
2019-06-26T20:20:50.135Z,11.27
2019-06-26T20:23:21.295Z,10.90
2019-06-26T20:25:52.572Z,11.80
2019-06-26T20:28:23.756Z,11.97
2019-06-26T20:30:54.975Z,11.67
2019-06-26T20:33:26.375Z,11.77
2019-06-26T20:35:57.728Z,11.63
2019-06-26T20:38:28.835Z,12.80
2019-06-26T20:41:00.348Z,12.03
2019-06-26T20:43:31.371Z,12.40
2019-06-26T20:46:02.620Z,12.60
2019-06-26T20:48:33.695Z,12.37
2019-06-26T20:51:04.963Z,12.70
2019-06-26T20:53:36.191Z,12.13
2019-06-26T20:56:07.647Z,13.47
2019-06-26T20:58:39.436Z,11.83
2019-06-26T21:01:12.083Z,13.03
2019-06-26T21:03:43.882Z,13.20
2019-06-26T21:06:15.127Z,12.93
2019-06-26T21:08:46.460Z,13.37
2019-06-26T21:11:17.381Z,12.87
2019-06-26T21:13:49.119Z,12.90
2019-06-26T21:16:20.483Z,13.07
2019-06-26T21:18:51.827Z,12.93
2019-06-26T21:21:23.032Z,11.90
2019-06-26T21:23:54.361Z,11.97
2019-06-26T21:26:25.679Z,13.77
2019-06-26T21:29:00.676Z,12.20
2019-06-26T21:31:29.849Z,13.63
2019-06-26T21:34:01.022Z,12.60
2019-06-26T21:36:32.204Z,12.50
2019-06-26T21:39:05.786Z,12.60
2019-06-26T21:41:36.047Z,13.40
2019-06-26T21:44:07.239Z,13.47
2019-06-26T21:46:38.375Z,13.63
2019-06-26T21:49:09.731Z,13.07
2019-06-26T21:51:41.227Z,13.00
2019-06-26T21:54:12.491Z,13.00
2019-06-26T21:57:01.681Z,11.40
2019-06-26T21:59:50.775Z,11.30
2019-06-26T22:02:39.647Z,11.40
2019-06-26T22:05:13.367Z,11.80
2019-06-26T22:07:46.406Z,11.60
2019-06-26T22:10:21.785Z,11.83
2019-06-26T22:12:53.400Z,11.00
2019-06-26T22:15:25.047Z,10.80
2019-06-26T22:17:56.055Z,10.50
2019-06-26T22:20:27.186Z,10.83
2019-06-26T22:22:58.188Z,11.00
2019-06-26T22:25:29.592Z,11.03
2019-06-26T22:28:00.739Z,11.27
2019-06-26T22:30:31.635Z,11.10
2019-06-26T22:33:03.107Z,11.13
2019-06-26T22:35:34.455Z,10.33
2019-06-26T22:38:05.399Z,10.57
2019-06-26T22:40:36.436Z,10.63
2019-06-26T22:43:07.475Z,11.00
2019-06-26T22:45:38.572Z,11.00
2019-06-26T22:48:10.219Z,11.07
2019-06-26T22:50:41.727Z,10.90
2019-06-26T22:53:12.999Z,10.53
2019-06-26T22:55:44.460Z,10.23
2019-06-26T22:58:15.385Z,10.17
2019-06-26T23:00:47.835Z,10.60
2019-06-26T23:03:20.355Z,11.13
2019-06-26T23:05:52.971Z,10.40
2019-06-26T23:08:23.991Z,10.63
2019-06-26T23:10:55.299Z,10.73
2019-06-26T23:13:26.660Z,10.93
2019-06-26T23:15:57.715Z,10.30
2019-06-26T23:18:28.888Z,10.80
2019-06-26T23:20:59.924Z,10.20
2019-06-26T23:23:30.992Z,10.63
2019-06-26T23:26:03.060Z,10.00
2019-06-26T23:28:34.420Z,10.47
2019-06-26T23:31:05.932Z,10.40
2019-06-26T23:33:36.964Z,10.33
2019-06-26T23:36:08.055Z,10.80
2019-06-26T23:38:39.300Z,10.13
2019-06-26T23:41:11.679Z,10.50
2019-06-26T23:43:42.816Z,10.60
2019-06-26T23:46:14.199Z,10.73
2019-06-26T23:48:45.883Z,10.60
2019-06-26T23:51:16.967Z,11.30
2019-06-26T23:53:47.967Z,9.87
2019-06-26T23:56:19.028Z,11.13
2019-06-26T23:58:50.279Z,10.90
